createdAt,value
2022-08-27T00:00:51.676Z,4.03
2022-08-27T00:01:53.402Z,3.70
2022-08-27T00:02:56.334Z,4.07
2022-08-27T00:03:59.504Z,3.58
2022-08-27T00:05:02.207Z,3.92
2022-08-27T00:06:04.420Z,3.60
2022-08-27T00:07:09.575Z,3.70
2022-08-27T00:08:12.756Z,3.38
2022-08-27T00:09:15.745Z,3.50
2022-08-27T00:10:20.341Z,3.65
2022-08-27T00:11:25.360Z,3.53
2022-08-27T00:12:26.953Z,3.65
2022-08-27T00:13:29.651Z,4.00
2022-08-27T00:14:31.554Z,4.22
2022-08-27T00:15:34.399Z,3.10
2022-08-27T00:16:36.055Z,3.38
2022-08-27T00:17:39.669Z,3.33
2022-08-27T00:18:42.437Z,3.17
2022-08-27T00:19:46.375Z,3.13
2022-08-27T00:20:48.061Z,3.72
2022-08-27T00:21:50.805Z,3.40
2022-08-27T00:22:52.756Z,3.53
2022-08-27T00:23:55.351Z,3.53
2022-08-27T00:24:56.957Z,3.50
2022-08-27T00:26:00.171Z,3.72
2022-08-27T00:27:01.892Z,3.85
2022-08-27T00:28:05.380Z,3.40
2022-08-27T00:29:08.357Z,3.53
2022-08-27T00:30:17.219Z,3.83
2022-08-27T00:31:18.943Z,2.97
2022-08-27T00:32:26.838Z,3.20
2022-08-27T00:33:28.756Z,3.80
2022-08-27T00:34:31.398Z,2.97
2022-08-27T00:35:35.546Z,3.80
2022-08-27T00:36:37.287Z,4.00
2022-08-27T00:37:40.115Z,4.10
2022-08-27T00:38:42.072Z,3.30
2022-08-27T00:39:44.788Z,3.17
2022-08-27T00:40:46.864Z,2.80
2022-08-27T00:41:49.620Z,4.00
2022-08-27T00:42:51.329Z,3.40
2022-08-27T00:43:57.261Z,3.10
2022-08-27T00:44:59.612Z,3.20
2022-08-27T00:46:06.686Z,3.63
2022-08-27T00:47:12.877Z,3.00
2022-08-27T00:48:18.752Z,3.33
2022-08-27T00:49:26.977Z,3.53
2022-08-27T00:50:33.665Z,2.97
2022-08-27T00:51:37.315Z,2.92
2022-08-27T00:52:44.688Z,3.20
2022-08-27T00:53:46.305Z,2.97
2022-08-27T00:54:50.032Z,2.88
2022-08-27T00:55:55.706Z,2.60
2022-08-27T00:56:59.499Z,3.10
2022-08-27T00:58:05.350Z,2.88
2022-08-27T00:59:08.521Z,2.90
2022-08-27T01:00:15.493Z,2.70
2022-08-27T01:01:19.281Z,3.78
2022-08-27T01:02:25.919Z,2.80
2022-08-27T01:03:28.063Z,2.80
2022-08-27T01:04:31.134Z,2.08
2022-08-27T01:05:33.488Z,2.83
2022-08-27T01:06:38.339Z,2.38
2022-08-27T01:07:41.908Z,2.72
2022-08-27T01:08:47.947Z,2.60
2022-08-27T01:09:50.181Z,2.75
2022-08-27T01:10:56.796Z,2.97
2022-08-27T01:11:58.654Z,2.08
2022-08-27T01:13:01.488Z,2.50
2022-08-27T01:14:04.950Z,2.70
2022-08-27T01:15:12.024Z,2.20
2022-08-27T01:16:17.700Z,2.50
2022-08-27T01:17:20.351Z,2.58
2022-08-27T01:18:21.994Z,2.75
2022-08-27T01:19:29.109Z,2.15
2022-08-27T01:20:35.982Z,2.30
2022-08-27T01:21:58.920Z,2.38
2022-08-27T01:23:06.153Z,2.47
2022-08-27T01:24:14.025Z,2.20
2022-08-27T01:25:18.196Z,2.65
2022-08-27T01:26:20.944Z,2.40
2022-08-27T01:27:24.831Z,2.80
2022-08-27T01:28:35.716Z,2.15
2022-08-27T01:29:39.691Z,2.53
2022-08-27T01:30:43.070Z,2.22
2022-08-27T01:31:44.734Z,2.95
2022-08-27T01:32:47.738Z,2.50
2022-08-27T01:33:57.574Z,2.42
2022-08-27T01:35:01.118Z,2.15
2022-08-27T01:36:03.843Z,1.95
2022-08-27T01:37:08.532Z,2.58
2022-08-27T01:38:18.898Z,2.05
2022-08-27T01:39:33.558Z,2.42
2022-08-27T01:40:37.019Z,2.05
2022-08-27T01:41:40.216Z,3.40
2022-08-27T01:42:44.053Z,2.00
2022-08-27T01:43:46.647Z,2.97
2022-08-27T01:44:52.215Z,2.20
2022-08-27T01:45:54.816Z,2.20
2022-08-27T01:46:56.474Z,2.35
2022-08-27T01:47:59.475Z,2.13
2022-08-27T01:49:01.119Z,2.55
2022-08-27T01:50:05.800Z,2.20
2022-08-27T01:51:08.540Z,2.03
2022-08-27T01:52:11.713Z,2.42
2022-08-27T01:53:16.094Z,1.77
2022-08-27T01:54:20.704Z,1.77
2022-08-27T01:55:24.992Z,2.65
2022-08-27T01:56:28.925Z,2.10
2022-08-27T01:57:32.357Z,1.80
2022-08-27T01:58:35.906Z,2.17
2022-08-27T01:59:39.726Z,2.35
2022-08-27T02:00:45.172Z,2.00
2022-08-27T02:01:46.911Z,2.40
2022-08-27T02:02:49.657Z,2.20
2022-08-27T02:03:51.270Z,1.77
2022-08-27T02:04:53.880Z,1.80
2022-08-27T02:05:55.738Z,1.90
2022-08-27T02:06:58.839Z,2.10
2022-08-27T02:08:00.719Z,1.80
2022-08-27T02:09:03.889Z,1.60
2022-08-27T02:10:07.619Z,1.60
2022-08-27T02:11:10.407Z,2.30
2022-08-27T02:12:13.536Z,1.85
2022-08-27T02:13:16.525Z,1.70
2022-08-27T02:14:18.475Z,1.60
2022-08-27T02:15:21.313Z,1.67
2022-08-27T02:16:23.634Z,1.50
2022-08-27T02:17:26.373Z,1.60
2022-08-27T02:18:28.047Z,1.50
2022-08-27T02:19:30.824Z,1.35
2022-08-27T02:20:32.853Z,1.80
2022-08-27T02:21:36.050Z,1.38
2022-08-27T02:22:38.065Z,1.65
2022-08-27T02:23:41.940Z,1.65
2022-08-27T02:24:43.980Z,1.42
2022-08-27T02:25:47.632Z,1.75
2022-08-27T02:26:49.260Z,1.23
2022-08-27T02:27:53.302Z,1.50
2022-08-27T02:28:54.954Z,1.40
2022-08-27T02:29:57.571Z,1.40
2022-08-27T02:30:59.258Z,1.48
2022-08-27T02:32:02.049Z,1.60
2022-08-27T02:33:05.374Z,1.42
2022-08-27T02:34:09.337Z,1.40
2022-08-27T02:35:11.471Z,1.45
2022-08-27T02:36:14.627Z,1.75
2022-08-27T02:37:16.305Z,1.50
2022-08-27T02:38:18.917Z,1.60
2022-08-27T02:39:21.041Z,1.08
2022-08-27T02:40:24.510Z,1.58
2022-08-27T02:41:27.120Z,1.30
2022-08-27T02:42:29.001Z,1.50
2022-08-27T02:43:33.198Z,1.80
2022-08-27T02:44:37.839Z,1.70
2022-08-27T02:45:40.446Z,1.60
2022-08-27T02:46:42.119Z,1.60
2022-08-27T02:47:44.795Z,1.35
2022-08-27T02:48:46.624Z,1.40
2022-08-27T02:49:49.315Z,1.60
2022-08-27T02:50:51.313Z,2.40
2022-08-27T02:51:54.589Z,2.45
2022-08-27T02:52:56.368Z,1.00
2022-08-27T02:53:58.962Z,1.65
2022-08-27T02:55:00.570Z,1.60
2022-08-27T02:56:03.526Z,1.20
2022-08-27T02:57:05.528Z,2.13
2022-08-27T02:58:08.498Z,1.50
2022-08-27T02:59:11.660Z,1.50
2022-08-27T03:00:17.868Z,1.70
2022-08-27T03:01:19.527Z,1.80
2022-08-27T03:02:22.776Z,1.50
2022-08-27T03:03:28.171Z,1.40
2022-08-27T03:04:30.821Z,1.30
2022-08-27T03:05:32.570Z,1.85
2022-08-27T03:06:35.180Z,1.58
2022-08-27T03:07:37.241Z,1.42
2022-08-27T03:08:53.353Z,1.70
2022-08-27T03:09:55.249Z,1.50
2022-08-27T03:10:58.443Z,1.42
2022-08-27T03:12:01.607Z,2.22
2022-08-27T03:13:04.271Z,1.90
2022-08-27T03:14:05.898Z,1.50
2022-08-27T03:15:12.979Z,1.60
2022-08-27T03:16:14.633Z,1.48
2022-08-27T03:17:34.854Z,1.35
2022-08-27T03:18:37.454Z,2.00
2022-08-27T03:19:39.034Z,1.70
2022-08-27T03:20:42.224Z,1.33
2022-08-27T03:21:44.801Z,1.98
2022-08-27T03:22:56.561Z,1.48
2022-08-27T03:24:11.334Z,1.17
2022-08-27T03:25:15.917Z,1.35
2022-08-27T03:26:19.343Z,1.70
2022-08-27T03:27:21.051Z,2.42
2022-08-27T03:28:25.893Z,1.33
2022-08-27T03:29:28.262Z,1.40
2022-08-27T03:30:32.599Z,1.70
2022-08-27T03:31:34.268Z,1.20
2022-08-27T03:32:37.365Z,1.90
2022-08-27T03:33:40.460Z,1.70
2022-08-27T03:34:43.259Z,1.30
2022-08-27T03:35:48.807Z,3.03
2022-08-27T03:36:53.841Z,1.60
2022-08-27T03:37:55.435Z,1.52
2022-08-27T03:38:58.584Z,1.42
2022-08-27T03:40:00.323Z,1.40
2022-08-27T03:41:03.347Z,1.52
2022-08-27T03:42:05.425Z,1.30
2022-08-27T03:43:08.005Z,1.60
2022-08-27T03:44:09.915Z,1.55
2022-08-27T03:45:17.396Z,1.60
2022-08-27T03:46:21.034Z,1.35
2022-08-27T03:47:23.700Z,1.60
2022-08-27T03:48:25.355Z,1.42
2022-08-27T03:49:28.256Z,1.63
2022-08-27T03:50:29.931Z,1.55
2022-08-27T03:51:32.555Z,1.33
2022-08-27T03:52:35.378Z,1.60
2022-08-27T03:53:39.226Z,1.30
2022-08-27T03:54:40.959Z,1.17
2022-08-27T03:55:43.592Z,1.10
2022-08-27T03:56:45.415Z,1.50
2022-08-27T03:57:49.243Z,1.48
2022-08-27T03:58:50.961Z,1.42
2022-08-27T03:59:54.251Z,1.55
2022-08-27T04:00:56.350Z,1.48
2022-08-27T04:02:00.631Z,1.30
2022-08-27T04:03:02.431Z,1.48
2022-08-27T04:04:05.570Z,1.50
2022-08-27T04:05:09.615Z,1.70
2022-08-27T04:06:12.659Z,2.00
2022-08-27T04:07:14.310Z,1.42
2022-08-27T04:08:17.383Z,1.70
2022-08-27T04:09:19.106Z,1.48
2022-08-27T04:10:21.770Z,1.50
2022-08-27T04:11:23.407Z,1.35
2022-08-27T04:12:26.843Z,1.75
2022-08-27T04:13:28.492Z,1.17
2022-08-27T04:14:31.060Z,1.30
2022-08-27T04:15:32.698Z,1.77
2022-08-27T04:16:36.109Z,1.25
2022-08-27T04:17:39.519Z,1.30
2022-08-27T04:18:42.135Z,1.70
2022-08-27T04:19:43.716Z,1.45
2022-08-27T04:20:47.063Z,1.40
2022-08-27T04:21:48.925Z,1.60
2022-08-27T04:22:51.514Z,1.30
2022-08-27T04:23:53.233Z,1.25
2022-08-27T04:24:56.440Z,1.73
2022-08-27T04:25:58.111Z,1.35
2022-08-27T04:27:01.317Z,1.45
2022-08-27T04:28:03.452Z,1.50
2022-08-27T04:29:06.118Z,1.77
2022-08-27T04:30:10.621Z,1.30
2022-08-27T04:31:16.611Z,1.20
2022-08-27T04:32:18.570Z,1.67
2022-08-27T04:33:23.716Z,1.80
2022-08-27T04:34:25.529Z,1.52
2022-08-27T04:35:28.076Z,1.35
2022-08-27T04:36:29.699Z,1.40
2022-08-27T04:37:33.753Z,1.50
2022-08-27T04:38:35.897Z,1.40
2022-08-27T04:39:38.575Z,1.45
2022-08-27T04:40:58.832Z,1.45
2022-08-27T04:42:02.059Z,1.98
2022-08-27T04:43:03.650Z,1.42
2022-08-27T04:44:08.534Z,1.67
2022-08-27T04:45:11.020Z,1.20
2022-08-27T04:46:14.126Z,1.60
2022-08-27T04:47:16.887Z,1.52
2022-08-27T04:48:19.784Z,1.38
2022-08-27T04:49:23.303Z,2.75
2022-08-27T04:50:25.936Z,1.65
2022-08-27T04:51:28.520Z,1.38
2022-08-27T04:52:31.868Z,1.77
2022-08-27T04:53:34.065Z,1.55
2022-08-27T04:54:37.332Z,1.92
2022-08-27T04:55:42.659Z,1.92
2022-08-27T04:56:45.264Z,1.20
2022-08-27T04:57:47.031Z,1.48
2022-08-27T04:58:50.343Z,1.85
2022-08-27T04:59:51.965Z,1.80
2022-08-27T05:00:56.765Z,1.40
2022-08-27T05:01:58.539Z,1.20
2022-08-27T05:03:02.140Z,1.48
2022-08-27T05:04:04.245Z,1.25
2022-08-27T05:05:11.161Z,1.55
2022-08-27T05:06:16.001Z,1.52
2022-08-27T05:07:19.263Z,1.98
2022-08-27T05:08:20.971Z,1.65
2022-08-27T05:09:24.441Z,1.45
2022-08-27T05:10:26.304Z,1.27
2022-08-27T05:11:32.306Z,1.63
2022-08-27T05:12:33.949Z,1.65
2022-08-27T05:13:37.917Z,1.40
2022-08-27T05:14:40.530Z,1.50
2022-08-27T05:15:42.287Z,1.58
2022-08-27T05:16:46.414Z,1.20
2022-08-27T05:17:48.049Z,1.60
2022-08-27T05:18:52.833Z,1.20
2022-08-27T05:19:54.462Z,1.30
2022-08-27T05:20:58.691Z,1.27
2022-08-27T05:22:01.386Z,1.17
2022-08-27T05:23:03.013Z,1.48
2022-08-27T05:24:07.949Z,1.40
2022-08-27T05:25:11.269Z,1.20
2022-08-27T05:26:14.169Z,1.30
2022-08-27T05:27:15.792Z,1.27
2022-08-27T05:28:21.385Z,1.35
2022-08-27T05:29:29.614Z,1.35
2022-08-27T05:30:36.796Z,1.27
2022-08-27T05:31:40.194Z,1.85
2022-08-27T05:32:41.987Z,1.65
2022-08-27T05:33:45.167Z,1.50
2022-08-27T05:34:46.791Z,1.50
2022-08-27T05:35:52.423Z,1.45
2022-08-27T05:36:56.393Z,1.42
2022-08-27T05:37:59.975Z,1.30
2022-08-27T05:39:04.621Z,1.55
2022-08-27T05:40:07.624Z,1.48
2022-08-27T05:41:12.439Z,1.67
2022-08-27T05:42:14.853Z,1.90
2022-08-27T05:43:19.109Z,1.60
2022-08-27T05:44:40.703Z,1.48
2022-08-27T05:45:44.859Z,1.40
2022-08-27T05:46:47.488Z,1.55
2022-08-27T05:47:49.194Z,1.73
2022-08-27T05:48:52.614Z,1.63
2022-08-27T05:49:54.731Z,1.70
2022-08-27T05:50:57.316Z,1.50
2022-08-27T05:52:00.336Z,1.38
2022-08-27T05:53:02.901Z,1.60
2022-08-27T05:54:08.760Z,1.67
2022-08-27T05:55:12.424Z,1.75
2022-08-27T05:56:14.837Z,1.60
2022-08-27T05:57:17.440Z,2.38
2022-08-27T05:58:37.688Z,1.48
2022-08-27T05:59:58.037Z,1.25
2022-08-27T06:01:10.161Z,1.52
2022-08-27T06:02:13.319Z,1.58
2022-08-27T06:03:14.912Z,2.38
2022-08-27T06:04:18.676Z,1.25
2022-08-27T06:05:20.632Z,1.55
2022-08-27T06:06:23.688Z,1.40
2022-08-27T06:07:26.643Z,2.50
2022-08-27T06:08:29.601Z,1.33
2022-08-27T06:09:31.283Z,1.80
2022-08-27T06:10:35.579Z,1.52
2022-08-27T06:11:37.507Z,1.35
2022-08-27T06:12:40.113Z,1.35
2022-08-27T06:13:41.803Z,1.52
2022-08-27T06:14:46.231Z,1.17
2022-08-27T06:15:47.894Z,1.90
2022-08-27T06:16:50.672Z,1.55
2022-08-27T06:17:53.051Z,1.60
2022-08-27T06:18:56.748Z,1.65
2022-08-27T06:19:59.313Z,1.63
2022-08-27T06:21:01.158Z,1.60
2022-08-27T06:22:10.282Z,1.50
2022-08-27T06:23:14.179Z,1.55
2022-08-27T06:24:16.973Z,1.55
2022-08-27T06:25:18.606Z,1.52
2022-08-27T06:26:22.623Z,2.08
2022-08-27T06:27:25.223Z,1.95
2022-08-27T06:28:29.543Z,1.33
2022-08-27T06:29:34.992Z,1.52
2022-08-27T06:30:36.612Z,1.65
2022-08-27T06:31:40.583Z,1.10
2022-08-27T06:32:43.418Z,1.42
2022-08-27T06:33:46.706Z,1.80
2022-08-27T06:34:49.511Z,1.45
2022-08-27T06:35:51.234Z,1.23
2022-08-27T06:36:54.354Z,1.60
2022-08-27T06:37:55.965Z,2.10
2022-08-27T06:39:00.651Z,1.60
2022-08-27T06:40:02.690Z,1.35
2022-08-27T06:41:05.976Z,1.42
2022-08-27T06:42:18.186Z,1.35
2022-08-27T06:43:24.966Z,1.67
2022-08-27T06:44:26.872Z,1.38
2022-08-27T06:45:29.447Z,1.60
2022-08-27T06:46:31.194Z,2.22
2022-08-27T06:47:33.964Z,1.60
2022-08-27T06:48:35.991Z,1.48
2022-08-27T06:49:39.965Z,1.42
2022-08-27T06:50:43.127Z,1.65
2022-08-27T06:51:47.077Z,2.22
2022-08-27T06:52:48.718Z,1.60
2022-08-27T06:53:52.521Z,1.45
2022-08-27T06:54:55.522Z,1.40
2022-08-27T06:55:58.137Z,1.38
2022-08-27T06:57:00.087Z,1.30
2022-08-27T06:58:02.725Z,1.42
2022-08-27T06:59:11.804Z,1.17
2022-08-27T07:00:15.267Z,1.67
2022-08-27T07:01:19.071Z,1.60
2022-08-27T07:02:21.791Z,1.40
2022-08-27T07:03:23.473Z,1.77
2022-08-27T07:04:32.026Z,2.13
2022-08-27T07:05:36.463Z,1.33
2022-08-27T07:06:39.902Z,1.70
2022-08-27T07:07:46.787Z,1.90
2022-08-27T07:08:53.606Z,1.23
2022-08-27T07:09:56.820Z,1.23
2022-08-27T07:10:59.397Z,2.00
2022-08-27T07:12:01.581Z,2.17
2022-08-27T07:13:04.591Z,1.10
2022-08-27T07:14:07.181Z,1.48
2022-08-27T07:15:11.384Z,1.60
2022-08-27T07:16:15.781Z,1.63
2022-08-27T07:17:17.505Z,1.27
2022-08-27T07:18:20.706Z,1.65
2022-08-27T07:19:30.258Z,1.38
2022-08-27T07:20:33.066Z,1.23
2022-08-27T07:21:35.403Z,1.40
2022-08-27T07:22:40.543Z,1.33
2022-08-27T07:23:42.450Z,1.27
2022-08-27T07:24:45.061Z,0.98
2022-08-27T07:25:48.487Z,1.42
2022-08-27T07:26:51.127Z,1.50
2022-08-27T07:27:52.762Z,1.38
2022-08-27T07:28:55.339Z,1.33
2022-08-27T07:29:58.307Z,1.27
2022-08-27T07:31:04.159Z,1.35
2022-08-27T07:32:06.036Z,1.30
2022-08-27T07:33:09.047Z,1.10
2022-08-27T07:34:11.601Z,1.30
2022-08-27T07:35:14.875Z,1.15
2022-08-27T07:36:16.796Z,1.30
2022-08-27T07:37:20.023Z,1.27
2022-08-27T07:38:24.959Z,1.50
2022-08-27T07:39:27.574Z,1.20
2022-08-27T07:40:29.243Z,1.17
2022-08-27T07:41:54.440Z,1.30
2022-08-27T07:43:14.663Z,1.30
2022-08-27T07:44:31.073Z,1.50
2022-08-27T07:45:45.579Z,1.30
2022-08-27T07:46:48.621Z,1.52
2022-08-27T07:47:52.268Z,1.17
2022-08-27T07:48:56.224Z,1.30
2022-08-27T07:49:59.040Z,1.30
2022-08-27T07:51:04.987Z,1.15
2022-08-27T07:52:07.619Z,1.27
2022-08-27T07:53:09.286Z,1.40
2022-08-27T07:54:12.298Z,1.02
2022-08-27T07:55:14.754Z,1.10
2022-08-27T07:56:17.890Z,1.48
2022-08-27T07:57:20.940Z,1.13
2022-08-27T07:58:23.540Z,1.45
2022-08-27T07:59:26.250Z,1.52
2022-08-27T08:00:29.020Z,1.25
2022-08-27T08:01:30.749Z,1.35
2022-08-27T08:02:35.128Z,1.15
2022-08-27T08:03:37.157Z,1.20
2022-08-27T08:04:39.756Z,1.30
2022-08-27T08:05:42.964Z,1.48
2022-08-27T08:06:45.579Z,1.13
2022-08-27T08:07:47.261Z,1.50
2022-08-27T08:08:49.884Z,1.60
2022-08-27T08:09:53.366Z,1.45
2022-08-27T08:10:57.354Z,1.42
2022-08-27T08:11:59.967Z,1.35
2022-08-27T08:13:03.247Z,1.52
2022-08-27T08:14:05.832Z,1.20
2022-08-27T08:15:11.463Z,1.10
2022-08-27T08:16:13.652Z,1.52
2022-08-27T08:17:16.278Z,1.42
2022-08-27T08:18:18.028Z,1.45
2022-08-27T08:19:22.748Z,1.23
2022-08-27T08:20:41.461Z,1.35
2022-08-27T08:21:47.405Z,1.17
2022-08-27T08:22:49.134Z,1.17
2022-08-27T08:23:52.045Z,1.40
2022-08-27T08:24:53.881Z,1.30
2022-08-27T08:25:57.661Z,1.30
2022-08-27T08:27:01.806Z,0.90
2022-08-27T08:28:07.949Z,1.13
2022-08-27T08:29:17.675Z,1.00
2022-08-27T08:30:21.142Z,1.50
2022-08-27T08:31:23.969Z,0.90
2022-08-27T08:32:26.773Z,1.40
2022-08-27T08:33:28.581Z,1.20
2022-08-27T08:34:31.189Z,1.35
2022-08-27T08:35:34.917Z,1.40
2022-08-27T08:36:43.741Z,1.45
2022-08-27T08:37:50.959Z,1.27
2022-08-27T08:38:54.657Z,1.48
2022-08-27T08:39:56.356Z,1.10
2022-08-27T08:40:59.168Z,1.10
2022-08-27T08:42:02.493Z,1.52
2022-08-27T08:43:12.134Z,2.17
2022-08-27T08:44:20.441Z,1.20
2022-08-27T08:45:26.645Z,1.48
2022-08-27T08:46:33.143Z,1.40
2022-08-27T08:47:42.958Z,1.33
2022-08-27T08:48:50.253Z,1.50
2022-08-27T08:49:55.131Z,1.75
2022-08-27T08:51:00.616Z,1.20
2022-08-27T08:52:16.981Z,1.40
2022-08-27T08:53:41.716Z,1.50
2022-08-27T08:54:44.832Z,1.60
2022-08-27T08:55:50.056Z,1.50
2022-08-27T08:56:56.801Z,1.27
2022-08-27T08:58:11.059Z,1.30
2022-08-27T08:59:17.162Z,1.60
2022-08-27T09:00:19.782Z,1.60
2022-08-27T09:01:21.820Z,1.13
2022-08-27T09:02:24.453Z,2.80
2022-08-27T09:03:29.337Z,1.60
2022-08-27T09:04:32.024Z,1.40
2022-08-27T09:05:35.886Z,1.60
2022-08-27T09:06:42.414Z,1.65
2022-08-27T09:07:49.971Z,1.65
2022-08-27T09:08:52.541Z,1.67
2022-08-27T09:09:58.651Z,1.45
2022-08-27T09:11:08.577Z,1.65
2022-08-27T09:12:15.232Z,1.27
2022-08-27T09:13:22.461Z,1.70
2022-08-27T09:14:37.844Z,1.48
2022-08-27T09:15:39.682Z,1.65
2022-08-27T09:16:43.131Z,1.38
2022-08-27T09:17:47.627Z,1.90
2022-08-27T09:18:52.614Z,1.67
2022-08-27T09:19:54.397Z,1.90
2022-08-27T09:21:09.037Z,1.83
2022-08-27T09:22:17.263Z,1.58
2022-08-27T09:23:25.552Z,1.50
2022-08-27T09:24:35.641Z,1.80
2022-08-27T09:25:39.725Z,1.77
2022-08-27T09:26:43.553Z,1.63
2022-08-27T09:27:46.135Z,1.52
2022-08-27T09:29:15.782Z,1.92
2022-08-27T09:30:21.716Z,2.08
2022-08-27T09:31:23.837Z,2.08
2022-08-27T09:32:28.144Z,1.85
2022-08-27T09:33:40.850Z,1.50
2022-08-27T09:34:52.971Z,1.55
2022-08-27T09:35:54.659Z,1.70
2022-08-27T09:37:02.771Z,2.22
2022-08-27T09:38:04.553Z,1.50
2022-08-27T09:39:07.411Z,1.63
2022-08-27T09:40:22.662Z,1.52
2022-08-27T09:41:28.960Z,1.80
2022-08-27T09:42:34.238Z,1.58
2022-08-27T09:43:38.729Z,1.58
2022-08-27T09:44:54.055Z,1.30
2022-08-27T09:45:59.637Z,1.83
2022-08-27T09:47:03.569Z,1.45
2022-08-27T09:48:10.452Z,1.67
2022-08-27T09:49:13.417Z,1.50
2022-08-27T09:50:18.360Z,1.90
2022-08-27T09:51:22.069Z,1.70
2022-08-27T09:52:32.724Z,1.70
2022-08-27T09:53:45.212Z,1.75
2022-08-27T09:54:48.102Z,1.67
2022-08-27T09:55:55.412Z,1.98
2022-08-27T09:56:58.963Z,2.30
2022-08-27T09:58:02.535Z,1.70
2022-08-27T09:59:06.917Z,1.67
2022-08-27T10:00:16.818Z,1.45
2022-08-27T10:01:21.170Z,1.92
2022-08-27T10:02:25.220Z,1.52
2022-08-27T10:03:31.353Z,2.72
2022-08-27T10:04:37.973Z,1.73
2022-08-27T10:05:54.395Z,1.60
2022-08-27T10:06:56.019Z,1.73
2022-08-27T10:08:01.218Z,1.50
2022-08-27T10:09:08.485Z,1.45
2022-08-27T10:10:15.759Z,2.80
2022-08-27T10:11:21.763Z,1.48
2022-08-27T10:12:28.275Z,1.60
2022-08-27T10:13:34.541Z,1.75
2022-08-27T10:14:41.798Z,1.65
2022-08-27T10:15:54.199Z,1.77
2022-08-27T10:17:04.834Z,1.23
2022-08-27T10:18:13.947Z,1.77
2022-08-27T10:19:28.911Z,1.50
2022-08-27T10:20:39.809Z,1.30
2022-08-27T10:21:46.229Z,1.73
2022-08-27T10:22:55.447Z,1.98
2022-08-27T10:24:07.476Z,1.40
2022-08-27T10:25:18.553Z,1.40
2022-08-27T10:26:25.369Z,1.35
2022-08-27T10:27:33.003Z,1.50
2022-08-27T10:28:41.678Z,1.45
2022-08-27T10:29:50.137Z,1.40
2022-08-27T10:31:08.164Z,1.38
2022-08-27T10:32:25.268Z,1.70
2022-08-27T10:33:33.498Z,1.70
2022-08-27T10:34:43.608Z,1.23
2022-08-27T10:35:54.680Z,1.60
2022-08-27T10:37:07.396Z,1.50
2022-08-27T10:38:16.295Z,1.30
2022-08-27T10:39:28.874Z,1.70
2022-08-27T10:40:34.521Z,1.63
2022-08-27T10:41:42.264Z,1.60
2022-08-27T10:42:57.573Z,2.42
2022-08-27T10:44:12.189Z,1.65
2022-08-27T10:45:31.153Z,1.48
2022-08-27T10:46:50.212Z,1.30
2022-08-27T10:48:03.056Z,1.70
2022-08-27T10:49:09.617Z,1.60
2022-08-27T10:50:22.680Z,1.23
2022-08-27T10:51:26.776Z,1.30
2022-08-27T10:52:33.360Z,1.48
2022-08-27T10:53:39.369Z,1.40
2022-08-27T10:54:44.029Z,1.55
2022-08-27T10:55:51.343Z,1.50
2022-08-27T10:57:14.427Z,1.55
2022-08-27T10:58:25.863Z,1.65
2022-08-27T10:59:33.710Z,1.45
2022-08-27T11:00:43.030Z,1.92
2022-08-27T11:01:49.329Z,1.70
2022-08-27T11:02:55.154Z,1.48
2022-08-27T11:04:02.304Z,1.50
2022-08-27T11:05:10.750Z,1.85
2022-08-27T11:06:16.525Z,1.33
2022-08-27T11:07:23.411Z,1.55
2022-08-27T11:08:27.753Z,1.73
2022-08-27T11:09:36.060Z,1.58
2022-08-27T11:10:41.325Z,1.50
2022-08-27T11:13:12.201Z,1.83
2022-08-27T11:14:22.244Z,1.48
2022-08-27T11:15:28.136Z,1.35
2022-08-27T11:16:36.505Z,1.33
2022-08-27T11:17:42.669Z,1.52
2022-08-27T11:18:48.144Z,1.35
2022-08-27T11:19:54.287Z,1.35
2022-08-27T11:21:00.733Z,1.10
2022-08-27T11:22:07.285Z,1.17
2022-08-27T11:23:19.125Z,1.42
2022-08-27T11:24:26.843Z,1.30
2022-08-27T11:25:38.362Z,1.52
2022-08-27T11:26:41.869Z,1.30
2022-08-27T11:27:46.373Z,1.60
2022-08-27T11:28:52.377Z,1.20
2022-08-27T11:30:00.406Z,1.48
2022-08-27T11:31:09.133Z,1.50
2022-08-27T11:32:16.183Z,1.35
2022-08-27T11:33:25.799Z,1.35
2022-08-27T11:34:32.310Z,1.88
2022-08-27T11:35:41.797Z,1.20
2022-08-27T11:37:07.619Z,1.30
2022-08-27T11:38:29.507Z,1.30
2022-08-27T11:39:43.500Z,1.38
2022-08-27T11:40:56.924Z,1.25
2022-08-27T11:42:03.354Z,1.67
2022-08-27T11:43:07.579Z,1.10
2022-08-27T11:44:09.565Z,1.40
2022-08-27T11:45:17.892Z,1.42
2022-08-27T11:46:25.152Z,1.42
2022-08-27T11:47:29.181Z,1.63
2022-08-27T11:48:35.806Z,1.50
2022-08-27T11:49:44.330Z,1.70
2022-08-27T11:50:58.312Z,1.40
2022-08-27T11:52:03.307Z,1.50
2022-08-27T11:53:07.767Z,1.10
2022-08-27T11:54:22.432Z,1.67
2022-08-27T11:55:27.290Z,1.25
2022-08-27T11:56:41.268Z,1.45
2022-08-27T11:57:43.426Z,1.80
2022-08-27T11:58:52.812Z,1.38
2022-08-27T11:59:55.227Z,1.40
2022-08-27T12:01:03.783Z,1.38
2022-08-27T12:02:21.863Z,1.42
2022-08-27T12:03:31.438Z,1.27
2022-08-27T12:04:37.762Z,1.40
2022-08-27T12:05:46.452Z,1.40
2022-08-27T12:06:51.522Z,1.40
2022-08-27T12:07:54.229Z,1.45
2022-08-27T12:09:06.755Z,1.48
2022-08-27T12:10:30.538Z,1.17
2022-08-27T12:11:38.556Z,1.23
2022-08-27T12:12:47.700Z,1.73
2022-08-27T12:13:54.342Z,1.38
2022-08-27T12:15:05.346Z,1.60
2022-08-27T12:16:16.949Z,1.55
2022-08-27T12:17:25.101Z,1.50
2022-08-27T12:18:49.644Z,1.73
2022-08-27T12:20:03.577Z,1.30
2022-08-27T12:21:14.716Z,1.55
2022-08-27T12:22:27.663Z,1.38
2022-08-27T12:23:44.033Z,1.33
2022-08-27T12:24:52.015Z,1.48
2022-08-27T12:26:00.365Z,1.42
2022-08-27T12:27:15.889Z,1.60
2022-08-27T12:28:26.573Z,1.30
2022-08-27T12:29:36.621Z,1.67
2022-08-27T12:30:49.595Z,1.63
2022-08-27T12:31:54.198Z,1.65
2022-08-27T12:32:57.625Z,1.70
2022-08-27T12:33:59.343Z,1.70
2022-08-27T12:35:10.723Z,1.70
2022-08-27T12:36:27.666Z,1.40
2022-08-27T12:37:33.223Z,1.55
2022-08-27T12:38:43.771Z,1.60
2022-08-27T12:39:51.340Z,1.23
2022-08-27T12:40:57.546Z,1.50
2022-08-27T12:41:59.136Z,1.70
2022-08-27T12:43:07.685Z,1.30
2022-08-27T12:44:11.268Z,1.58
2022-08-27T12:45:25.379Z,1.40
2022-08-27T12:46:29.021Z,1.48
2022-08-27T12:47:40.542Z,1.27
2022-08-27T12:48:49.626Z,1.63
2022-08-27T12:49:56.314Z,1.55
2022-08-27T12:51:04.166Z,1.58
2022-08-27T12:52:15.025Z,1.60
2022-08-27T12:53:42.710Z,1.58
2022-08-27T12:54:53.916Z,1.70
2022-08-27T12:56:03.423Z,1.38
2022-08-27T12:57:12.986Z,1.50
2022-08-27T12:58:20.340Z,1.35
2022-08-27T12:59:40.868Z,1.65
2022-08-27T13:01:04.302Z,1.58
2022-08-27T13:02:14.915Z,1.55
2022-08-27T13:03:22.943Z,1.38
2022-08-27T13:04:28.724Z,1.70
2022-08-27T13:05:37.608Z,1.55
2022-08-27T13:06:46.176Z,1.35
2022-08-27T13:07:49.527Z,1.80
2022-08-27T13:08:54.876Z,1.30
2022-08-27T13:09:57.485Z,1.55
2022-08-27T13:11:09.287Z,1.60
2022-08-27T13:12:17.403Z,1.20
2022-08-27T13:13:22.287Z,1.65
2022-08-27T13:14:26.859Z,1.55
2022-08-27T13:15:29.431Z,1.77
2022-08-27T13:16:31.228Z,1.42
2022-08-27T13:17:37.643Z,1.58
2022-08-27T13:18:40.238Z,1.60
2022-08-27T13:19:50.712Z,1.67
2022-08-27T13:21:02.864Z,1.58
2022-08-27T13:22:07.057Z,1.80
2022-08-27T13:23:18.512Z,1.65
2022-08-27T13:24:34.605Z,1.60
2022-08-27T13:25:36.245Z,1.85
2022-08-27T13:26:39.736Z,1.65
2022-08-27T13:27:41.394Z,2.22
2022-08-27T13:28:44.548Z,1.98
2022-08-27T13:29:46.170Z,3.25
2022-08-27T13:30:49.223Z,1.73
2022-08-27T13:31:52.506Z,1.92
2022-08-27T13:32:54.264Z,1.83
2022-08-27T13:33:58.639Z,1.55
2022-08-27T13:35:01.236Z,1.73
2022-08-27T13:36:06.592Z,3.58
2022-08-27T13:37:22.397Z,3.17
2022-08-27T13:38:28.295Z,1.90
2022-08-27T13:39:30.235Z,1.90
2022-08-27T13:40:34.455Z,1.83
2022-08-27T13:41:38.443Z,2.10
2022-08-27T13:42:42.052Z,1.67
2022-08-27T13:43:46.826Z,1.55
2022-08-27T13:44:48.602Z,1.67
2022-08-27T13:45:54.387Z,1.33
2022-08-27T13:47:00.301Z,1.73
2022-08-27T13:48:03.374Z,1.85
2022-08-27T13:49:06.597Z,1.73
2022-08-27T13:50:14.503Z,1.65
2022-08-27T13:51:17.523Z,1.70
2022-08-27T13:52:25.479Z,2.03
2022-08-27T13:53:48.257Z,1.30
2022-08-27T13:54:52.823Z,2.22
2022-08-27T13:55:55.967Z,1.92
2022-08-27T13:57:08.037Z,2.17
2022-08-27T13:58:13.968Z,1.77
2022-08-27T13:59:24.835Z,1.70
2022-08-27T14:00:31.417Z,1.48
2022-08-27T14:01:34.053Z,2.13
2022-08-27T14:02:35.895Z,1.30
2022-08-27T14:03:48.801Z,1.50
2022-08-27T14:05:02.940Z,1.60
2022-08-27T14:06:06.364Z,1.27
2022-08-27T14:07:13.543Z,1.90
2022-08-27T14:08:19.744Z,1.30
2022-08-27T14:09:25.204Z,1.40
2022-08-27T14:10:32.462Z,1.27
2022-08-27T14:11:35.062Z,1.67
2022-08-27T14:12:40.007Z,1.48
2022-08-27T14:13:45.222Z,1.50
2022-08-27T14:14:54.284Z,1.70
2022-08-27T14:15:57.385Z,2.42
2022-08-27T14:17:01.812Z,1.48
2022-08-27T14:18:05.012Z,1.50
2022-08-27T14:19:10.379Z,1.80
2022-08-27T14:20:13.276Z,1.70
2022-08-27T14:21:15.889Z,1.80
2022-08-27T14:22:18.611Z,1.50
2022-08-27T14:23:23.770Z,1.33
2022-08-27T14:24:27.032Z,1.60
2022-08-27T14:25:28.620Z,1.45
2022-08-27T14:26:31.407Z,1.80
2022-08-27T14:27:35.687Z,1.60
2022-08-27T14:28:38.419Z,2.25
2022-08-27T14:29:40.357Z,1.45
2022-08-27T14:30:43.000Z,1.63
2022-08-27T14:31:44.718Z,3.95